Terminal Aerodrome Forecast
Issued by NWS Paducah, KY

Home | Current Version | Previous Version | Text Only | Print | Product List | Glossary On
Versions: 1 2 3 4 5 6 7 8 9 10 11 12 13 14 15 16 17 18
000
FTUS43 KPAH 291120
TAFEVV
TAF
KEVV 291120Z 2912/3012 21010KT P6SM SCT050 BKN100
     FM291500 25011G16KT P6SM SCT025 BKN050
     FM300000 VRB03KT P6SM SCT060=

USA.gov is the U.S. government's official web portal to all federal, state and local government web resources and services.